sensor_id;sensor_type;location;lat;lon;timestamp;temperature;humidity
6102;DHT22;3081;50.584;7.032;2024-01-07T00:00:24;2.80;99.90
6102;DHT22;3081;50.584;7.032;2024-01-07T00:02:51;2.80;99.90
6102;DHT22;3081;50.584;7.032;2024-01-07T00:05:20;2.80;99.90
6102;DHT22;3081;50.584;7.032;2024-01-07T00:07:46;2.80;99.90
6102;DHT22;3081;50.584;7.032;2024-01-07T00:10:16;2.80;99.90
6102;DHT22;3081;50.584;7.032;2024-01-07T00:12:43;2.90;99.90
6102;DHT22;3081;50.584;7.032;2024-01-07T00:15:10;2.90;99.90
6102;DHT22;3081;50.584;7.032;2024-01-07T00:17:37;2.90;99.90
6102;DHT22;3081;50.584;7.032;2024-01-07T00:20:05;2.90;99.90
6102;DHT22;3081;50.584;7.032;2024-01-07T00:22:34;2.80;99.90
6102;DHT22;3081;50.584;7.032;2024-01-07T00:25:00;2.80;99.90
6102;DHT22;3081;50.584;7.032;2024-01-07T00:27:26;2.80;99.90
6102;DHT22;3081;50.584;7.032;2024-01-07T00:29:53;2.80;99.90
6102;DHT22;3081;50.584;7.032;2024-01-07T00:32:20;2.80;99.90
6102;DHT22;3081;50.584;7.032;2024-01-07T00:34:47;2.80;99.90
6102;DHT22;3081;50.584;7.032;2024-01-07T00:37:14;2.80;99.90
6102;DHT22;3081;50.584;7.032;2024-01-07T00:39:42;2.90;99.90
6102;DHT22;3081;50.584;7.032;2024-01-07T00:42:11;2.80;99.90
6102;DHT22;3081;50.584;7.032;2024-01-07T00:44:38;2.90;99.90
6102;DHT22;3081;50.584;7.032;2024-01-07T00:47:05;2.90;99.90
6102;DHT22;3081;50.584;7.032;2024-01-07T00:49:32;2.90;99.90
6102;DHT22;3081;50.584;7.032;2024-01-07T00:51:58;2.90;99.90
6102;DHT22;3081;50.584;7.032;2024-01-07T00:54:25;2.80;99.90
6102;DHT22;3081;50.584;7.032;2024-01-07T00:56:54;2.90;99.90
6102;DHT22;3081;50.584;7.032;2024-01-07T00:59:20;2.90;99.90
6102;DHT22;3081;50.584;7.032;2024-01-07T01:01:47;2.90;99.90
6102;DHT22;3081;50.584;7.032;2024-01-07T01:04:14;2.90;99.90
6102;DHT22;3081;50.584;7.032;2024-01-07T01:06:41;3.00;99.90
6102;DHT22;3081;50.584;7.032;2024-01-07T01:09:08;3.00;99.90
6102;DHT22;3081;50.584;7.032;2024-01-07T01:11:35;3.00;99.90
6102;DHT22;3081;50.584;7.032;2024-01-07T01:14:03;3.00;99.90
6102;DHT22;3081;50.584;7.032;2024-01-07T01:16:30;3.00;99.90
6102;DHT22;3081;50.584;7.032;2024-01-07T01:18:57;3.00;99.90
6102;DHT22;3081;50.584;7.032;2024-01-07T01:21:24;2.90;99.90
6102;DHT22;3081;50.584;7.032;2024-01-07T01:23:51;2.90;99.90
6102;DHT22;3081;50.584;7.032;2024-01-07T01:26:18;2.90;99.90
6102;DHT22;3081;50.584;7.032;2024-01-07T01:28:45;2.80;99.90
6102;DHT22;3081;50.584;7.032;2024-01-07T01:31:14;3.00;99.90
6102;DHT22;3081;50.584;7.032;2024-01-07T01:33:41;3.00;99.90
6102;DHT22;3081;50.584;7.032;2024-01-07T01:36:08;3.00;99.90
6102;DHT22;3081;50.584;7.032;2024-01-07T01:38:35;3.00;99.90
6102;DHT22;3081;50.584;7.032;2024-01-07T01:41:02;3.00;99.90
6102;DHT22;3081;50.584;7.032;2024-01-07T01:43:29;3.00;99.90
6102;DHT22;3081;50.584;7.032;2024-01-07T01:45:57;3.00;99.90
6102;DHT22;3081;50.584;7.032;2024-01-07T01:48:26;3.00;99.90
6102;DHT22;3081;50.584;7.032;2024-01-07T01:50:53;3.00;99.90
6102;DHT22;3081;50.584;7.032;2024-01-07T01:53:24;3.00;99.90
6102;DHT22;3081;50.584;7.032;2024-01-07T01:55:51;3.00;99.90
6102;DHT22;3081;50.584;7.032;2024-01-07T01:58:19;3.00;99.90
6102;DHT22;3081;50.584;7.032;2024-01-07T02:00:46;3.00;99.90
6102;DHT22;3081;50.584;7.032;2024-01-07T02:03:13;3.10;99.90
6102;DHT22;3081;50.584;7.032;2024-01-07T02:05:41;3.10;99.90
6102;DHT22;3081;50.584;7.032;2024-01-07T02:08:08;3.10;99.90
6102;DHT22;3081;50.584;7.032;2024-01-07T02:10:35;3.00;99.90
6102;DHT22;3081;50.584;7.032;2024-01-07T02:13:02;3.00;99.90
6102;DHT22;3081;50.584;7.032;2024-01-07T02:15:29;3.10;99.90
6102;DHT22;3081;50.584;7.032;2024-01-07T02:17:56;3.10;99.90
6102;DHT22;3081;50.584;7.032;2024-01-07T02:20:23;3.00;99.90
6102;DHT22;3081;50.584;7.032;2024-01-07T02:22:52;3.00;99.90
6102;DHT22;3081;50.584;7.032;2024-01-07T02:25:20;3.00;99.90
6102;DHT22;3081;50.584;7.032;2024-01-07T02:27:47;3.00;99.90
6102;DHT22;3081;50.584;7.032;2024-01-07T02:30:14;3.00;99.90
6102;DHT22;3081;50.584;7.032;2024-01-07T02:32:41;3.00;99.90
6102;DHT22;3081;50.584;7.032;2024-01-07T02:35:08;3.00;99.90
6102;DHT22;3081;50.584;7.032;2024-01-07T02:37:35;3.00;99.90
6102;DHT22;3081;50.584;7.032;2024-01-07T02:40:02;3.10;99.90
6102;DHT22;3081;50.584;7.032;2024-01-07T02:42:30;3.00;99.90
6102;DHT22;3081;50.584;7.032;2024-01-07T02:44:57;3.00;99.90
6102;DHT22;3081;50.584;7.032;2024-01-07T02:47:24;3.00;99.90
6102;DHT22;3081;50.584;7.032;2024-01-07T02:49:51;2.90;99.90
6102;DHT22;3081;50.584;7.032;2024-01-07T02:52:18;2.90;99.90
6102;DHT22;3081;50.584;7.032;2024-01-07T02:54:45;2.90;99.90
6102;DHT22;3081;50.584;7.032;2024-01-07T02:57:12;3.00;99.90
6102;DHT22;3081;50.584;7.032;2024-01-07T02:59:40;2.90;99.90
6102;DHT22;3081;50.584;7.032;2024-01-07T03:02:07;2.90;99.90
6102;DHT22;3081;50.584;7.032;2024-01-07T03:04:34;2.90;99.90
6102;DHT22;3081;50.584;7.032;2024-01-07T03:07:01;2.90;99.90
6102;DHT22;3081;50.584;7.032;2024-01-07T03:09:28;2.90;99.90
6102;DHT22;3081;50.584;7.032;2024-01-07T03:11:55;3.00;99.90
6102;DHT22;3081;50.584;7.032;2024-01-07T03:14:22;3.00;99.90
6102;DHT22;3081;50.584;7.032;2024-01-07T03:16:50;3.00;99.90
6102;DHT22;3081;50.584;7.032;2024-01-07T03:19:17;3.00;99.90
6102;DHT22;3081;50.584;7.032;2024-01-07T03:21:44;3.00;99.90
6102;DHT22;3081;50.584;7.032;2024-01-07T03:24:11;2.90;99.90
6102;DHT22;3081;50.584;7.032;2024-01-07T03:26:38;2.90;99.90
6102;DHT22;3081;50.584;7.032;2024-01-07T03:29:05;2.90;99.90
6102;DHT22;3081;50.584;7.032;2024-01-07T03:31:32;2.90;99.90
6102;DHT22;3081;50.584;7.032;2024-01-07T03:34:00;2.90;99.90
6102;DHT22;3081;50.584;7.032;2024-01-07T03:36:27;2.90;99.90
6102;DHT22;3081;50.584;7.032;2024-01-07T03:38:54;3.00;99.90
6102;DHT22;3081;50.584;7.032;2024-01-07T03:41:20;3.00;99.90
6102;DHT22;3081;50.584;7.032;2024-01-07T03:43:48;3.00;99.90
6102;DHT22;3081;50.584;7.032;2024-01-07T03:46:15;3.00;99.90
6102;DHT22;3081;50.584;7.032;2024-01-07T03:48:43;3.00;99.90
6102;DHT22;3081;50.584;7.032;2024-01-07T03:51:11;3.00;99.90
6102;DHT22;3081;50.584;7.032;2024-01-07T03:53:38;3.00;99.90
6102;DHT22;3081;50.584;7.032;2024-01-07T03:56:05;2.90;99.90
6102;DHT22;3081;50.584;7.032;2024-01-07T03:58:32;3.00;99.90
6102;DHT22;3081;50.584;7.032;2024-01-07T04:01:00;3.00;99.90
6102;DHT22;3081;50.584;7.032;2024-01-07T04:03:27;2.90;99.90
6102;DHT22;3081;50.584;7.032;2024-01-07T04:05:54;3.00;99.90
6102;DHT22;3081;50.584;7.032;2024-01-07T04:08:22;3.00;99.90
6102;DHT22;3081;50.584;7.032;2024-01-07T04:10:49;3.00;99.90
6102;DHT22;3081;50.584;7.032;2024-01-07T04:13:16;3.00;99.90
6102;DHT22;3081;50.584;7.032;2024-01-07T04:15:43;3.00;99.90
6102;DHT22;3081;50.584;7.032;2024-01-07T04:18:10;3.00;99.90
6102;DHT22;3081;50.584;7.032;2024-01-07T04:20:37;3.00;99.90
6102;DHT22;3081;50.584;7.032;2024-01-07T04:23:04;3.10;99.90
6102;DHT22;3081;50.584;7.032;2024-01-07T04:25:32;3.10;99.90
6102;DHT22;3081;50.584;7.032;2024-01-07T04:27:59;3.10;99.90
6102;DHT22;3081;50.584;7.032;2024-01-07T04:30:26;3.10;99.90
6102;DHT22;3081;50.584;7.032;2024-01-07T04:32:53;3.10;99.90
6102;DHT22;3081;50.584;7.032;2024-01-07T04:35:20;3.00;99.90
6102;DHT22;3081;50.584;7.032;2024-01-07T04:37:47;3.10;99.90
6102;DHT22;3081;50.584;7.032;2024-01-07T04:40:14;3.00;99.90
6102;DHT22;3081;50.584;7.032;2024-01-07T04:42:42;3.00;99.90
6102;DHT22;3081;50.584;7.032;2024-01-07T04:45:09;3.00;99.90
6102;DHT22;3081;50.584;7.032;2024-01-07T04:47:36;3.10;99.90
6102;DHT22;3081;50.584;7.032;2024-01-07T04:50:04;3.10;99.90
6102;DHT22;3081;50.584;7.032;2024-01-07T04:52:31;3.10;99.90
6102;DHT22;3081;50.584;7.032;2024-01-07T04:54:58;3.10;99.90
6102;DHT22;3081;50.584;7.032;2024-01-07T04:57:25;3.10;99.90
6102;DHT22;3081;50.584;7.032;2024-01-07T04:59:53;3.10;99.90
6102;DHT22;3081;50.584;7.032;2024-01-07T05:02:20;3.10;99.90
6102;DHT22;3081;50.584;7.032;2024-01-07T05:04:47;3.10;99.90
6102;DHT22;3081;50.584;7.032;2024-01-07T05:07:14;3.10;99.90
6102;DHT22;3081;50.584;7.032;2024-01-07T05:09:41;3.10;99.90
6102;DHT22;3081;50.584;7.032;2024-01-07T05:12:08;3.10;99.90
6102;DHT22;3081;50.584;7.032;2024-01-07T05:14:36;3.10;99.90
6102;DHT22;3081;50.584;7.032;2024-01-07T05:17:04;3.10;99.90
6102;DHT22;3081;50.584;7.032;2024-01-07T05:19:31;3.10;99.90
6102;DHT22;3081;50.584;7.032;2024-01-07T05:21:58;3.00;99.90
6102;DHT22;3081;50.584;7.032;2024-01-07T05:24:25;3.00;99.90
6102;DHT22;3081;50.584;7.032;2024-01-07T05:26:53;3.00;99.90
6102;DHT22;3081;50.584;7.032;2024-01-07T05:29:20;3.00;99.90
6102;DHT22;3081;50.584;7.032;2024-01-07T05:31:47;3.10;99.90
6102;DHT22;3081;50.584;7.032;2024-01-07T05:34:16;3.10;99.90
6102;DHT22;3081;50.584;7.032;2024-01-07T05:36:43;3.00;99.90
6102;DHT22;3081;50.584;7.032;2024-01-07T05:39:09;3.00;99.90
6102;DHT22;3081;50.584;7.032;2024-01-07T05:41:37;3.00;99.90
6102;DHT22;3081;50.584;7.032;2024-01-07T05:44:05;3.00;99.90
6102;DHT22;3081;50.584;7.032;2024-01-07T05:46:32;3.00;99.90
6102;DHT22;3081;50.584;7.032;2024-01-07T05:49:00;3.00;99.90
6102;DHT22;3081;50.584;7.032;2024-01-07T05:51:28;3.00;99.90
6102;DHT22;3081;50.584;7.032;2024-01-07T05:53:55;3.10;99.90
6102;DHT22;3081;50.584;7.032;2024-01-07T05:56:22;3.00;99.90
6102;DHT22;3081;50.584;7.032;2024-01-07T05:58:49;3.00;99.90
6102;DHT22;3081;50.584;7.032;2024-01-07T06:01:19;3.00;99.90
6102;DHT22;3081;50.584;7.032;2024-01-07T06:03:46;3.00;99.90
6102;DHT22;3081;50.584;7.032;2024-01-07T06:06:13;3.00;99.90
6102;DHT22;3081;50.584;7.032;2024-01-07T06:08:42;3.00;99.90
6102;DHT22;3081;50.584;7.032;2024-01-07T06:11:09;3.00;99.90
6102;DHT22;3081;50.584;7.032;2024-01-07T06:13:37;3.00;99.90
6102;DHT22;3081;50.584;7.032;2024-01-07T06:16:05;3.00;99.90
6102;DHT22;3081;50.584;7.032;2024-01-07T06:18:31;3.00;99.90
6102;DHT22;3081;50.584;7.032;2024-01-07T06:20:58;3.00;99.90
6102;DHT22;3081;50.584;7.032;2024-01-07T06:23:25;3.00;99.90
6102;DHT22;3081;50.584;7.032;2024-01-07T06:25:54;2.90;99.90
6102;DHT22;3081;50.584;7.032;2024-01-07T06:28:20;2.90;99.90
6102;DHT22;3081;50.584;7.032;2024-01-07T06:30:47;2.90;99.90
6102;DHT22;3081;50.584;7.032;2024-01-07T06:33:14;3.00;99.90
6102;DHT22;3081;50.584;7.032;2024-01-07T06:35:41;3.00;99.90
6102;DHT22;3081;50.584;7.032;2024-01-07T06:38:08;2.90;99.90
6102;DHT22;3081;50.584;7.032;2024-01-07T06:40:35;2.90;99.90
6102;DHT22;3081;50.584;7.032;2024-01-07T06:43:03;2.90;99.90
6102;DHT22;3081;50.584;7.032;2024-01-07T06:45:31;2.90;99.90
6102;DHT22;3081;50.584;7.032;2024-01-07T06:47:58;2.80;99.90
6102;DHT22;3081;50.584;7.032;2024-01-07T06:50:26;2.90;99.90
6102;DHT22;3081;50.584;7.032;2024-01-07T06:52:53;2.90;99.90
6102;DHT22;3081;50.584;7.032;2024-01-07T06:55:20;2.90;99.90
6102;DHT22;3081;50.584;7.032;2024-01-07T06:57:47;2.90;99.90
6102;DHT22;3081;50.584;7.032;2024-01-07T07:00:16;2.90;99.90
6102;DHT22;3081;50.584;7.032;2024-01-07T07:02:43;2.80;99.90
6102;DHT22;3081;50.584;7.032;2024-01-07T07:05:10;2.80;99.90
6102;DHT22;3081;50.584;7.032;2024-01-07T07:07:37;2.70;99.90
6102;DHT22;3081;50.584;7.032;2024-01-07T07:10:04;2.70;99.90
6102;DHT22;3081;50.584;7.032;2024-01-07T07:12:31;2.60;99.90
6102;DHT22;3081;50.584;7.032;2024-01-07T07:14:58;2.60;99.90
6102;DHT22;3081;50.584;7.032;2024-01-07T07:17:27;2.60;99.90
6102;DHT22;3081;50.584;7.032;2024-01-07T07:19:53;2.60;99.90
6102;DHT22;3081;50.584;7.032;2024-01-07T07:22:20;2.70;99.90
6102;DHT22;3081;50.584;7.032;2024-01-07T07:24:47;2.70;99.90
6102;DHT22;3081;50.584;7.032;2024-01-07T07:27:14;2.60;99.90
6102;DHT22;3081;50.584;7.032;2024-01-07T07:29:41;2.60;99.90
6102;DHT22;3081;50.584;7.032;2024-01-07T07:32:08;2.60;99.90
6102;DHT22;3081;50.584;7.032;2024-01-07T07:34:36;2.70;99.90
6102;DHT22;3081;50.584;7.032;2024-01-07T07:37:04;2.70;99.90
6102;DHT22;3081;50.584;7.032;2024-01-07T07:39:30;2.60;99.90
6102;DHT22;3081;50.584;7.032;2024-01-07T07:41:57;2.60;99.90
6102;DHT22;3081;50.584;7.032;2024-01-07T07:44:25;2.60;99.90
6102;DHT22;3081;50.584;7.032;2024-01-07T07:46:51;2.60;99.90
6102;DHT22;3081;50.584;7.032;2024-01-07T07:49:22;2.60;99.90
6102;DHT22;3081;50.584;7.032;2024-01-07T07:51:51;2.60;99.90
6102;DHT22;3081;50.584;7.032;2024-01-07T07:54:17;2.60;99.90
6102;DHT22;3081;50.584;7.032;2024-01-07T07:56:44;2.60;99.90
6102;DHT22;3081;50.584;7.032;2024-01-07T07:59:10;2.60;99.90
6102;DHT22;3081;50.584;7.032;2024-01-07T08:01:37;2.60;99.90
6102;DHT22;3081;50.584;7.032;2024-01-07T08:04:05;2.60;99.90
6102;DHT22;3081;50.584;7.032;2024-01-07T08:06:33;2.60;99.90
6102;DHT22;3081;50.584;7.032;2024-01-07T08:09:01;2.60;99.90
6102;DHT22;3081;50.584;7.032;2024-01-07T08:11:28;2.60;99.90
6102;DHT22;3081;50.584;7.032;2024-01-07T08:13:56;2.70;99.90
6102;DHT22;3081;50.584;7.032;2024-01-07T08:16:23;2.70;99.90
6102;DHT22;3081;50.584;7.032;2024-01-07T08:18:50;2.70;99.90
6102;DHT22;3081;50.584;7.032;2024-01-07T08:21:17;2.70;99.90
6102;DHT22;3081;50.584;7.032;2024-01-07T08:23:44;2.70;99.90
6102;DHT22;3081;50.584;7.032;2024-01-07T08:26:12;2.70;99.90
6102;DHT22;3081;50.584;7.032;2024-01-07T08:28:39;2.80;99.90
6102;DHT22;3081;50.584;7.032;2024-01-07T08:31:06;2.80;99.90
6102;DHT22;3081;50.584;7.032;2024-01-07T08:33:33;2.80;99.90
6102;DHT22;3081;50.584;7.032;2024-01-07T08:36:00;2.80;99.90
6102;DHT22;3081;50.584;7.032;2024-01-07T08:38:27;2.80;99.90
6102;DHT22;3081;50.584;7.032;2024-01-07T08:40:54;2.80;99.90
6102;DHT22;3081;50.584;7.032;2024-01-07T08:43:22;2.80;99.90
6102;DHT22;3081;50.584;7.032;2024-01-07T08:45:49;2.70;99.90
6102;DHT22;3081;50.584;7.032;2024-01-07T08:48:17;2.70;99.90
6102;DHT22;3081;50.584;7.032;2024-01-07T08:50:44;2.70;99.90
6102;DHT22;3081;50.584;7.032;2024-01-07T08:53:12;2.80;99.90
6102;DHT22;3081;50.584;7.032;2024-01-07T08:55:40;2.80;99.90
6102;DHT22;3081;50.584;7.032;2024-01-07T08:58:08;2.80;99.90
6102;DHT22;3081;50.584;7.032;2024-01-07T09:00:36;2.70;99.90
6102;DHT22;3081;50.584;7.032;2024-01-07T09:03:03;2.70;99.90
6102;DHT22;3081;50.584;7.032;2024-01-07T09:05:30;2.70;99.90
6102;DHT22;3081;50.584;7.032;2024-01-07T09:07:57;2.80;99.90
6102;DHT22;3081;50.584;7.032;2024-01-07T09:10:24;2.70;99.90
6102;DHT22;3081;50.584;7.032;2024-01-07T09:12:52;2.80;99.90
6102;DHT22;3081;50.584;7.032;2024-01-07T09:15:19;2.70;99.90
6102;DHT22;3081;50.584;7.032;2024-01-07T09:17:48;2.70;99.90
6102;DHT22;3081;50.584;7.032;2024-01-07T09:20:15;2.70;99.90
6102;DHT22;3081;50.584;7.032;2024-01-07T09:22:42;2.70;99.90
6102;DHT22;3081;50.584;7.032;2024-01-07T09:25:09;2.70;99.90
6102;DHT22;3081;50.584;7.032;2024-01-07T09:27:36;2.80;99.90
6102;DHT22;3081;50.584;7.032;2024-01-07T09:30:04;2.80;99.90
6102;DHT22;3081;50.584;7.032;2024-01-07T09:32:31;2.80;99.90
6102;DHT22;3081;50.584;7.032;2024-01-07T09:34:59;2.90;99.90
6102;DHT22;3081;50.584;7.032;2024-01-07T09:37:26;2.80;99.90
6102;DHT22;3081;50.584;7.032;2024-01-07T09:39:53;2.80;99.90
6102;DHT22;3081;50.584;7.032;2024-01-07T09:42:20;2.80;99.90
6102;DHT22;3081;50.584;7.032;2024-01-07T09:44:48;2.80;99.90
6102;DHT22;3081;50.584;7.032;2024-01-07T09:47:17;2.70;99.90
6102;DHT22;3081;50.584;7.032;2024-01-07T09:49:44;2.70;99.90
6102;DHT22;3081;50.584;7.032;2024-01-07T09:52:12;2.70;99.90
6102;DHT22;3081;50.584;7.032;2024-01-07T09:54:40;2.70;99.90
6102;DHT22;3081;50.584;7.032;2024-01-07T09:57:08;2.70;99.90
6102;DHT22;3081;50.584;7.032;2024-01-07T09:59:36;2.70;99.90
6102;DHT22;3081;50.584;7.032;2024-01-07T10:02:04;2.70;99.90
6102;DHT22;3081;50.584;7.032;2024-01-07T10:04:32;2.70;99.90
6102;DHT22;3081;50.584;7.032;2024-01-07T10:06:59;2.80;99.90
6102;DHT22;3081;50.584;7.032;2024-01-07T10:09:32;2.70;99.90
6102;DHT22;3081;50.584;7.032;2024-01-07T10:11:59;2.80;99.90
6102;DHT22;3081;50.584;7.032;2024-01-07T10:14:26;2.80;99.90
6102;DHT22;3081;50.584;7.032;2024-01-07T10:16:53;2.80;99.90
6102;DHT22;3081;50.584;7.032;2024-01-07T10:19:20;2.90;99.90
6102;DHT22;3081;50.584;7.032;2024-01-07T10:21:59;2.90;99.90
6102;DHT22;3081;50.584;7.032;2024-01-07T10:24:26;2.90;99.90
6102;DHT22;3081;50.584;7.032;2024-01-07T10:26:55;3.00;99.90
6102;DHT22;3081;50.584;7.032;2024-01-07T10:29:22;3.00;99.90
6102;DHT22;3081;50.584;7.032;2024-01-07T10:31:49;3.00;99.90
6102;DHT22;3081;50.584;7.032;2024-01-07T10:34:16;3.00;99.90
6102;DHT22;3081;50.584;7.032;2024-01-07T10:36:45;3.00;99.90
6102;DHT22;3081;50.584;7.032;2024-01-07T10:39:12;3.10;99.90
6102;DHT22;3081;50.584;7.032;2024-01-07T10:41:42;3.00;99.90
6102;DHT22;3081;50.584;7.032;2024-01-07T10:44:12;3.10;99.90
6102;DHT22;3081;50.584;7.032;2024-01-07T10:46:39;3.00;99.90
6102;DHT22;3081;50.584;7.032;2024-01-07T10:49:14;3.00;99.90
6102;DHT22;3081;50.584;7.032;2024-01-07T10:51:45;3.00;99.90
6102;DHT22;3081;50.584;7.032;2024-01-07T10:54:13;3.10;99.90
6102;DHT22;3081;50.584;7.032;2024-01-07T10:56:45;3.10;99.90
6102;DHT22;3081;50.584;7.032;2024-01-07T10:59:16;3.10;99.90
6102;DHT22;3081;50.584;7.032;2024-01-07T11:01:44;3.10;99.90
6102;DHT22;3081;50.584;7.032;2024-01-07T11:04:15;3.00;99.90
6102;DHT22;3081;50.584;7.032;2024-01-07T11:06:49;3.00;99.90
6102;DHT22;3081;50.584;7.032;2024-01-07T11:09:23;3.00;99.90
6102;DHT22;3081;50.584;7.032;2024-01-07T11:11:50;3.00;99.90
6102;DHT22;3081;50.584;7.032;2024-01-07T11:14:39;3.10;99.90
6102;DHT22;3081;50.584;7.032;2024-01-07T11:17:06;3.10;99.90
6102;DHT22;3081;50.584;7.032;2024-01-07T11:19:34;3.10;99.90
6102;DHT22;3081;50.584;7.032;2024-01-07T11:22:24;3.10;99.90
6102;DHT22;3081;50.584;7.032;2024-01-07T11:24:53;3.10;99.90
6102;DHT22;3081;50.584;7.032;2024-01-07T11:27:22;3.10;99.90
6102;DHT22;3081;50.584;7.032;2024-01-07T11:29:57;3.10;99.90
6102;DHT22;3081;50.584;7.032;2024-01-07T11:32:27;3.00;99.90
6102;DHT22;3081;50.584;7.032;2024-01-07T11:34:55;3.00;99.90
6102;DHT22;3081;50.584;7.032;2024-01-07T11:37:25;3.00;99.90
6102;DHT22;3081;50.584;7.032;2024-01-07T11:39:55;3.10;99.90
6102;DHT22;3081;50.584;7.032;2024-01-07T11:42:22;3.00;99.90
6102;DHT22;3081;50.584;7.032;2024-01-07T11:44:51;3.10;99.90
6102;DHT22;3081;50.584;7.032;2024-01-07T11:47:21;3.10;99.90
6102;DHT22;3081;50.584;7.032;2024-01-07T11:49:48;3.10;99.90
6102;DHT22;3081;50.584;7.032;2024-01-07T11:52:15;3.10;99.90
6102;DHT22;3081;50.584;7.032;2024-01-07T11:54:42;3.10;99.90
6102;DHT22;3081;50.584;7.032;2024-01-07T11:57:10;3.10;99.90
6102;DHT22;3081;50.584;7.032;2024-01-07T11:59:37;3.00;99.90
6102;DHT22;3081;50.584;7.032;2024-01-07T12:02:04;3.00;99.90
6102;DHT22;3081;50.584;7.032;2024-01-07T12:04:33;3.10;99.90
6102;DHT22;3081;50.584;7.032;2024-01-07T12:07:00;3.10;99.90
6102;DHT22;3081;50.584;7.032;2024-01-07T12:09:29;3.20;99.90
6102;DHT22;3081;50.584;7.032;2024-01-07T12:11:56;3.20;99.90
6102;DHT22;3081;50.584;7.032;2024-01-07T12:14:23;3.20;99.90
6102;DHT22;3081;50.584;7.032;2024-01-07T12:16:50;3.20;99.90
6102;DHT22;3081;50.584;7.032;2024-01-07T12:19:17;3.20;99.90
6102;DHT22;3081;50.584;7.032;2024-01-07T12:21:47;3.20;99.90
6102;DHT22;3081;50.584;7.032;2024-01-07T12:24:14;3.20;99.90
6102;DHT22;3081;50.584;7.032;2024-01-07T12:26:41;3.20;99.90
6102;DHT22;3081;50.584;7.032;2024-01-07T12:29:12;3.20;99.90
6102;DHT22;3081;50.584;7.032;2024-01-07T12:31:39;3.30;99.90
6102;DHT22;3081;50.584;7.032;2024-01-07T12:34:07;3.30;99.90
6102;DHT22;3081;50.584;7.032;2024-01-07T12:36:34;3.30;99.90
6102;DHT22;3081;50.584;7.032;2024-01-07T12:39:02;3.30;99.90
6102;DHT22;3081;50.584;7.032;2024-01-07T12:41:29;3.30;99.90
6102;DHT22;3081;50.584;7.032;2024-01-07T12:43:56;3.30;99.90
6102;DHT22;3081;50.584;7.032;2024-01-07T12:46:23;3.30;99.90
6102;DHT22;3081;50.584;7.032;2024-01-07T12:48:50;3.20;99.90
6102;DHT22;3081;50.584;7.032;2024-01-07T12:51:17;3.20;99.90
6102;DHT22;3081;50.584;7.032;2024-01-07T12:53:44;3.20;99.90
6102;DHT22;3081;50.584;7.032;2024-01-07T12:56:13;3.20;99.90
6102;DHT22;3081;50.584;7.032;2024-01-07T12:58:39;3.20;99.90
6102;DHT22;3081;50.584;7.032;2024-01-07T13:01:06;3.10;99.90
6102;DHT22;3081;50.584;7.032;2024-01-07T13:03:33;3.10;99.90
6102;DHT22;3081;50.584;7.032;2024-01-07T13:06:00;3.00;99.90
6102;DHT22;3081;50.584;7.032;2024-01-07T13:08:27;3.10;99.90
6102;DHT22;3081;50.584;7.032;2024-01-07T13:10:55;3.00;99.90
6102;DHT22;3081;50.584;7.032;2024-01-07T13:13:23;3.00;99.90
6102;DHT22;3081;50.584;7.032;2024-01-07T13:15:50;2.90;99.90
6102;DHT22;3081;50.584;7.032;2024-01-07T13:18:17;2.90;99.90
6102;DHT22;3081;50.584;7.032;2024-01-07T13:20:44;2.90;99.90
6102;DHT22;3081;50.584;7.032;2024-01-07T13:23:11;2.90;99.90
6102;DHT22;3081;50.584;7.032;2024-01-07T13:25:38;2.80;99.90
6102;DHT22;3081;50.584;7.032;2024-01-07T13:28:05;2.80;99.90
6102;DHT22;3081;50.584;7.032;2024-01-07T13:30:37;2.80;99.90
6102;DHT22;3081;50.584;7.032;2024-01-07T13:33:05;2.80;99.90
6102;DHT22;3081;50.584;7.032;2024-01-07T13:35:33;2.80;99.90
6102;DHT22;3081;50.584;7.032;2024-01-07T13:38:00;2.70;99.90
6102;DHT22;3081;50.584;7.032;2024-01-07T13:40:27;2.70;99.90
6102;DHT22;3081;50.584;7.032;2024-01-07T13:42:54;2.70;99.90
6102;DHT22;3081;50.584;7.032;2024-01-07T13:45:21;2.60;99.90
6102;DHT22;3081;50.584;7.032;2024-01-07T13:47:49;2.70;99.90
6102;DHT22;3081;50.584;7.032;2024-01-07T13:50:16;2.60;99.90
6102;DHT22;3081;50.584;7.032;2024-01-07T13:52:44;2.60;99.90
6102;DHT22;3081;50.584;7.032;2024-01-07T13:55:10;2.60;99.90
6102;DHT22;3081;50.584;7.032;2024-01-07T13:57:38;2.60;99.90
6102;DHT22;3081;50.584;7.032;2024-01-07T14:00:07;2.60;99.90
6102;DHT22;3081;50.584;7.032;2024-01-07T14:02:35;2.60;99.90
6102;DHT22;3081;50.584;7.032;2024-01-07T14:05:05;2.60;99.90
6102;DHT22;3081;50.584;7.032;2024-01-07T14:07:34;2.70;99.90
6102;DHT22;3081;50.584;7.032;2024-01-07T14:10:02;2.60;99.90
6102;DHT22;3081;50.584;7.032;2024-01-07T14:12:30;2.70;99.90
6102;DHT22;3081;50.584;7.032;2024-01-07T14:14:57;2.70;99.90
6102;DHT22;3081;50.584;7.032;2024-01-07T14:17:24;2.70;99.90
6102;DHT22;3081;50.584;7.032;2024-01-07T14:19:51;2.70;99.90
6102;DHT22;3081;50.584;7.032;2024-01-07T14:22:20;2.70;99.90
6102;DHT22;3081;50.584;7.032;2024-01-07T14:24:47;2.70;99.90
6102;DHT22;3081;50.584;7.032;2024-01-07T14:27:14;2.60;99.90
6102;DHT22;3081;50.584;7.032;2024-01-07T14:29:41;2.60;99.90
6102;DHT22;3081;50.584;7.032;2024-01-07T14:32:08;2.50;99.90
6102;DHT22;3081;50.584;7.032;2024-01-07T14:34:38;2.50;99.90
6102;DHT22;3081;50.584;7.032;2024-01-07T14:37:05;2.40;99.90
6102;DHT22;3081;50.584;7.032;2024-01-07T14:39:38;2.30;99.90
6102;DHT22;3081;50.584;7.032;2024-01-07T14:42:05;2.30;99.90
6102;DHT22;3081;50.584;7.032;2024-01-07T14:44:32;2.30;99.90
6102;DHT22;3081;50.584;7.032;2024-01-07T14:46:59;2.30;99.90
6102;DHT22;3081;50.584;7.032;2024-01-07T14:49:26;2.30;99.90
6102;DHT22;3081;50.584;7.032;2024-01-07T14:51:53;2.30;99.90
6102;DHT22;3081;50.584;7.032;2024-01-07T14:54:20;2.20;99.90
6102;DHT22;3081;50.584;7.032;2024-01-07T14:56:48;2.20;99.90
6102;DHT22;3081;50.584;7.032;2024-01-07T14:59:15;2.20;99.90
6102;DHT22;3081;50.584;7.032;2024-01-07T15:01:42;2.20;99.90
6102;DHT22;3081;50.584;7.032;2024-01-07T15:04:09;2.10;99.90
6102;DHT22;3081;50.584;7.032;2024-01-07T15:06:41;2.10;99.90
6102;DHT22;3081;50.584;7.032;2024-01-07T15:09:07;2.10;99.90
6102;DHT22;3081;50.584;7.032;2024-01-07T15:11:35;2.10;99.90
6102;DHT22;3081;50.584;7.032;2024-01-07T15:14:02;2.00;99.90
6102;DHT22;3081;50.584;7.032;2024-01-07T15:16:33;2.00;99.90
6102;DHT22;3081;50.584;7.032;2024-01-07T15:19:00;2.00;99.90
6102;DHT22;3081;50.584;7.032;2024-01-07T15:21:27;1.90;99.90
6102;DHT22;3081;50.584;7.032;2024-01-07T15:23:54;1.90;99.90
6102;DHT22;3081;50.584;7.032;2024-01-07T15:26:21;1.80;99.90
6102;DHT22;3081;50.584;7.032;2024-01-07T15:28:48;1.80;99.90
6102;DHT22;3081;50.584;7.032;2024-01-07T15:31:16;1.80;99.90
6102;DHT22;3081;50.584;7.032;2024-01-07T15:33:43;1.80;99.90
6102;DHT22;3081;50.584;7.032;2024-01-07T15:36:11;1.70;99.90
6102;DHT22;3081;50.584;7.032;2024-01-07T15:38:37;1.70;99.90
6102;DHT22;3081;50.584;7.032;2024-01-07T15:41:04;1.70;99.90
6102;DHT22;3081;50.584;7.032;2024-01-07T15:43:31;1.70;99.90
6102;DHT22;3081;50.584;7.032;2024-01-07T15:45:58;1.60;99.90
6102;DHT22;3081;50.584;7.032;2024-01-07T15:48:26;1.60;99.90
6102;DHT22;3081;50.584;7.032;2024-01-07T15:50:53;1.60;99.90
6102;DHT22;3081;50.584;7.032;2024-01-07T15:53:20;1.60;99.90
6102;DHT22;3081;50.584;7.032;2024-01-07T15:55:49;1.50;99.90
6102;DHT22;3081;50.584;7.032;2024-01-07T15:58:16;1.50;99.90
6102;DHT22;3081;50.584;7.032;2024-01-07T16:00:43;1.50;99.90
6102;DHT22;3081;50.584;7.032;2024-01-07T16:03:10;1.50;99.90
6102;DHT22;3081;50.584;7.032;2024-01-07T16:05:39;1.50;99.90
6102;DHT22;3081;50.584;7.032;2024-01-07T16:08:06;1.40;99.90
6102;DHT22;3081;50.584;7.032;2024-01-07T16:10:33;1.40;99.90
6102;DHT22;3081;50.584;7.032;2024-01-07T16:13:00;1.30;99.90
6102;DHT22;3081;50.584;7.032;2024-01-07T16:15:26;1.30;99.90
6102;DHT22;3081;50.584;7.032;2024-01-07T16:17:53;1.30;99.90